sensor_id;sensor_type;location;lat;lon;timestamp;P1;durP1;ratioP1;P2;durP2;ratioP2
49223;SDS011;35050;51.316;5.994;2023-04-15T00:00:06;2.13;;;1.10;;
49223;SDS011;35050;51.316;5.994;2023-04-15T00:02:33;1.40;;;1.30;;
49223;SDS011;35050;51.316;5.994;2023-04-15T00:05:00;2.28;;;1.45;;
49223;SDS011;35050;51.316;5.994;2023-04-15T00:07:27;2.55;;;1.23;;
49223;SDS011;35050;51.316;5.994;2023-04-15T00:09:53;1.95;;;1.27;;
49223;SDS011;35050;51.316;5.994;2023-04-15T00:12:21;2.55;;;1.40;;
49223;SDS011;35050;51.316;5.994;2023-04-15T00:14:48;3.13;;;1.58;;
49223;SDS011;35050;51.316;5.994;2023-04-15T00:17:15;1.67;;;1.20;;
49223;SDS011;35050;51.316;5.994;2023-04-15T00:19:45;2.00;;;1.25;;
49223;SDS011;35050;51.316;5.994;2023-04-15T00:22:11;3.17;;;1.27;;
49223;SDS011;35050;51.316;5.994;2023-04-15T00:24:37;1.38;;;0.82;;
49223;SDS011;35050;51.316;5.994;2023-04-15T00:27:03;2.00;;;1.20;;
49223;SDS011;35050;51.316;5.994;2023-04-15T00:29:30;1.75;;;1.13;;
49223;SDS011;35050;51.316;5.994;2023-04-15T00:31:58;1.63;;;1.10;;
49223;SDS011;35050;51.316;5.994;2023-04-15T00:34:23;3.25;;;1.23;;
49223;SDS011;35050;51.316;5.994;2023-04-15T00:36:53;2.65;;;1.33;;
49223;SDS011;35050;51.316;5.994;2023-04-15T00:39:18;2.78;;;1.48;;
49223;SDS011;35050;51.316;5.994;2023-04-15T00:41:49;1.98;;;1.02;;
49223;SDS011;35050;51.316;5.994;2023-04-15T00:44:15;2.50;;;0.98;;
49223;SDS011;35050;51.316;5.994;2023-04-15T00:46:42;1.25;;;1.10;;
49223;SDS011;35050;51.316;5.994;2023-04-15T00:49:10;1.27;;;1.15;;
49223;SDS011;35050;51.316;5.994;2023-04-15T00:51:37;2.17;;;1.20;;
49223;SDS011;35050;51.316;5.994;2023-04-15T00:54:03;1.75;;;1.00;;
49223;SDS011;35050;51.316;5.994;2023-04-15T00:56:30;2.58;;;1.13;;
49223;SDS011;35050;51.316;5.994;2023-04-15T00:58:58;2.63;;;1.38;;
49223;SDS011;35050;51.316;5.994;2023-04-15T01:01:24;1.92;;;1.40;;
49223;SDS011;35050;51.316;5.994;2023-04-15T01:03:51;2.03;;;1.20;;
49223;SDS011;35050;51.316;5.994;2023-04-15T01:06:22;2.65;;;1.40;;
49223;SDS011;35050;51.316;5.994;2023-04-15T01:08:48;2.20;;;1.35;;
49223;SDS011;35050;51.316;5.994;2023-04-15T01:11:27;2.08;;;1.38;;
49223;SDS011;35050;51.316;5.994;2023-04-15T01:13:55;2.85;;;1.70;;
49223;SDS011;35050;51.316;5.994;2023-04-15T01:16:22;2.95;;;1.20;;
49223;SDS011;35050;51.316;5.994;2023-04-15T01:18:49;2.83;;;1.30;;
49223;SDS011;35050;51.316;5.994;2023-04-15T01:21:16;4.47;;;1.52;;
49223;SDS011;35050;51.316;5.994;2023-04-15T01:23:42;3.28;;;1.52;;
49223;SDS011;35050;51.316;5.994;2023-04-15T01:26:11;3.00;;;1.52;;
49223;SDS011;35050;51.316;5.994;2023-04-15T01:28:37;1.50;;;1.15;;
49223;SDS011;35050;51.316;5.994;2023-04-15T01:33:32;2.45;;;1.70;;
49223;SDS011;35050;51.316;5.994;2023-04-15T01:35:58;3.65;;;1.25;;
49223;SDS011;35050;51.316;5.994;2023-04-15T01:38:25;2.75;;;1.95;;
49223;SDS011;35050;51.316;5.994;2023-04-15T01:40:52;3.17;;;2.00;;
49223;SDS011;35050;51.316;5.994;2023-04-15T01:43:19;2.28;;;1.75;;
49223;SDS011;35050;51.316;5.994;2023-04-15T01:45:44;2.60;;;1.63;;
49223;SDS011;35050;51.316;5.994;2023-04-15T01:48:10;3.67;;;1.80;;
49223;SDS011;35050;51.316;5.994;2023-04-15T01:50:36;2.58;;;1.63;;
49223;SDS011;35050;51.316;5.994;2023-04-15T01:53:03;2.58;;;1.52;;
49223;SDS011;35050;51.316;5.994;2023-04-15T01:55:28;2.60;;;1.67;;
49223;SDS011;35050;51.316;5.994;2023-04-15T01:57:55;3.67;;;1.80;;
49223;SDS011;35050;51.316;5.994;2023-04-15T02:00:20;3.13;;;1.95;;
49223;SDS011;35050;51.316;5.994;2023-04-15T02:02:47;3.42;;;1.70;;
49223;SDS011;35050;51.316;5.994;2023-04-15T02:05:13;3.38;;;1.85;;
49223;SDS011;35050;51.316;5.994;2023-04-15T02:07:41;3.00;;;1.88;;
49223;SDS011;35050;51.316;5.994;2023-04-15T02:10:07;3.63;;;2.20;;
49223;SDS011;35050;51.316;5.994;2023-04-15T02:12:34;2.78;;;2.10;;
49223;SDS011;35050;51.316;5.994;2023-04-15T02:15:00;2.60;;;1.90;;
49223;SDS011;35050;51.316;5.994;2023-04-15T02:17:35;2.80;;;1.90;;
49223;SDS011;35050;51.316;5.994;2023-04-15T02:20:01;3.25;;;2.10;;
49223;SDS011;35050;51.316;5.994;2023-04-15T02:22:31;3.92;;;1.90;;
49223;SDS011;35050;51.316;5.994;2023-04-15T02:24:56;3.58;;;2.03;;
49223;SDS011;35050;51.316;5.994;2023-04-15T02:27:23;2.38;;;1.75;;
49223;SDS011;35050;51.316;5.994;2023-04-15T02:29:48;3.55;;;2.13;;
49223;SDS011;35050;51.316;5.994;2023-04-15T02:32:15;2.78;;;2.08;;
49223;SDS011;35050;51.316;5.994;2023-04-15T02:34:42;3.30;;;2.03;;
49223;SDS011;35050;51.316;5.994;2023-04-15T02:37:09;4.28;;;2.05;;
49223;SDS011;35050;51.316;5.994;2023-04-15T02:39:43;5.07;;;2.58;;
49223;SDS011;35050;51.316;5.994;2023-04-15T02:42:09;3.80;;;2.03;;
49223;SDS011;35050;51.316;5.994;2023-04-15T02:44:35;3.05;;;1.90;;
49223;SDS011;35050;51.316;5.994;2023-04-15T02:47:01;3.25;;;2.30;;
49223;SDS011;35050;51.316;5.994;2023-04-15T02:49:28;3.72;;;2.35;;
49223;SDS011;35050;51.316;5.994;2023-04-15T02:51:55;3.60;;;2.30;;
49223;SDS011;35050;51.316;5.994;2023-04-15T02:54:22;3.55;;;2.33;;
49223;SDS011;35050;51.316;5.994;2023-04-15T02:56:51;4.50;;;2.53;;
49223;SDS011;35050;51.316;5.994;2023-04-15T02:59:19;5.20;;;2.47;;
49223;SDS011;35050;51.316;5.994;2023-04-15T03:01:45;3.13;;;2.45;;
49223;SDS011;35050;51.316;5.994;2023-04-15T03:04:10;3.10;;;2.40;;
49223;SDS011;35050;51.316;5.994;2023-04-15T03:06:38;6.15;;;3.00;;
49223;SDS011;35050;51.316;5.994;2023-04-15T03:09:04;3.95;;;2.63;;
49223;SDS011;35050;51.316;5.994;2023-04-15T03:11:30;5.15;;;2.97;;
49223;SDS011;35050;51.316;5.994;2023-04-15T03:13:57;3.50;;;2.30;;
49223;SDS011;35050;51.316;5.994;2023-04-15T03:16:23;4.55;;;2.70;;
49223;SDS011;35050;51.316;5.994;2023-04-15T03:18:49;3.63;;;2.92;;
49223;SDS011;35050;51.316;5.994;2023-04-15T03:21:14;4.47;;;3.00;;
49223;SDS011;35050;51.316;5.994;2023-04-15T03:23:40;3.72;;;2.45;;
49223;SDS011;35050;51.316;5.994;2023-04-15T03:26:06;5.10;;;2.60;;
49223;SDS011;35050;51.316;5.994;2023-04-15T03:28:32;4.28;;;2.80;;
49223;SDS011;35050;51.316;5.994;2023-04-15T03:30:58;5.53;;;2.85;;
49223;SDS011;35050;51.316;5.994;2023-04-15T03:33:25;5.13;;;3.03;;
49223;SDS011;35050;51.316;5.994;2023-04-15T03:35:50;5.45;;;3.10;;
49223;SDS011;35050;51.316;5.994;2023-04-15T03:38:17;3.40;;;2.40;;
49223;SDS011;35050;51.316;5.994;2023-04-15T03:40:43;6.65;;;2.97;;
49223;SDS011;35050;51.316;5.994;2023-04-15T03:43:30;5.63;;;3.03;;
49223;SDS011;35050;51.316;5.994;2023-04-15T03:45:56;4.72;;;2.80;;
49223;SDS011;35050;51.316;5.994;2023-04-15T03:48:21;7.07;;;3.08;;
49223;SDS011;35050;51.316;5.994;2023-04-15T03:50:47;3.95;;;2.95;;
49223;SDS011;35050;51.316;5.994;2023-04-15T03:53:13;4.32;;;3.15;;
49223;SDS011;35050;51.316;5.994;2023-04-15T03:55:40;4.45;;;2.95;;
49223;SDS011;35050;51.316;5.994;2023-04-15T03:58:05;4.05;;;3.15;;
49223;SDS011;35050;51.316;5.994;2023-04-15T04:00:37;5.03;;;3.15;;
49223;SDS011;35050;51.316;5.994;2023-04-15T04:03:03;5.53;;;2.85;;
49223;SDS011;35050;51.316;5.994;2023-04-15T04:05:29;4.22;;;3.22;;
49223;SDS011;35050;51.316;5.994;2023-04-15T04:07:55;3.85;;;3.08;;
49223;SDS011;35050;51.316;5.994;2023-04-15T04:10:20;4.22;;;3.13;;
49223;SDS011;35050;51.316;5.994;2023-04-15T04:12:46;6.78;;;3.50;;
49223;SDS011;35050;51.316;5.994;2023-04-15T04:15:12;5.35;;;3.10;;
49223;SDS011;35050;51.316;5.994;2023-04-15T04:17:38;4.60;;;3.22;;
49223;SDS011;35050;51.316;5.994;2023-04-15T04:20:03;3.72;;;2.90;;
49223;SDS011;35050;51.316;5.994;2023-04-15T04:22:30;5.07;;;3.10;;
49223;SDS011;35050;51.316;5.994;2023-04-15T04:24:55;4.03;;;2.90;;
49223;SDS011;35050;51.316;5.994;2023-04-15T04:27:23;6.05;;;3.50;;
49223;SDS011;35050;51.316;5.994;2023-04-15T04:29:49;5.30;;;3.45;;
49223;SDS011;35050;51.316;5.994;2023-04-15T04:32:15;5.00;;;3.53;;
49223;SDS011;35050;51.316;5.994;2023-04-15T04:34:41;14.52;;;3.60;;
49223;SDS011;35050;51.316;5.994;2023-04-15T04:37:08;4.63;;;3.17;;
49223;SDS011;35050;51.316;5.994;2023-04-15T04:39:33;5.45;;;3.40;;
49223;SDS011;35050;51.316;5.994;2023-04-15T04:42:00;5.18;;;3.67;;
49223;SDS011;35050;51.316;5.994;2023-04-15T04:44:26;5.88;;;4.03;;
49223;SDS011;35050;51.316;5.994;2023-04-15T04:46:52;5.30;;;3.70;;
49223;SDS011;35050;51.316;5.994;2023-04-15T04:49:18;6.20;;;3.55;;
49223;SDS011;35050;51.316;5.994;2023-04-15T04:51:43;6.10;;;3.45;;
49223;SDS011;35050;51.316;5.994;2023-04-15T04:54:12;4.95;;;3.58;;
49223;SDS011;35050;51.316;5.994;2023-04-15T04:56:38;4.47;;;3.53;;
49223;SDS011;35050;51.316;5.994;2023-04-15T04:59:05;4.25;;;3.40;;
49223;SDS011;35050;51.316;5.994;2023-04-15T05:01:31;5.60;;;3.45;;
49223;SDS011;35050;51.316;5.994;2023-04-15T05:03:59;6.50;;;3.60;;
49223;SDS011;35050;51.316;5.994;2023-04-15T05:06:25;4.28;;;3.47;;
49223;SDS011;35050;51.316;5.994;2023-04-15T05:09:01;4.63;;;3.30;;
49223;SDS011;35050;51.316;5.994;2023-04-15T05:11:27;5.38;;;3.40;;
49223;SDS011;35050;51.316;5.994;2023-04-15T05:13:53;4.95;;;3.50;;
49223;SDS011;35050;51.316;5.994;2023-04-15T05:16:19;6.35;;;3.42;;
49223;SDS011;35050;51.316;5.994;2023-04-15T05:18:46;3.95;;;3.20;;
49223;SDS011;35050;51.316;5.994;2023-04-15T05:21:12;3.78;;;3.03;;
49223;SDS011;35050;51.316;5.994;2023-04-15T05:23:38;3.60;;;2.88;;
49223;SDS011;35050;51.316;5.994;2023-04-15T05:26:04;3.83;;;2.75;;
49223;SDS011;35050;51.316;5.994;2023-04-15T05:28:30;5.43;;;3.10;;
49223;SDS011;35050;51.316;5.994;2023-04-15T05:30:55;2.95;;;2.63;;
49223;SDS011;35050;51.316;5.994;2023-04-15T05:33:21;6.38;;;3.40;;
49223;SDS011;35050;51.316;5.994;2023-04-15T05:35:47;8.63;;;3.17;;
49223;SDS011;35050;51.316;5.994;2023-04-15T05:38:13;7.03;;;3.17;;
49223;SDS011;35050;51.316;5.994;2023-04-15T05:40:38;4.03;;;2.88;;
49223;SDS011;35050;51.316;5.994;2023-04-15T05:43:04;2.92;;;2.55;;
49223;SDS011;35050;51.316;5.994;2023-04-15T05:45:30;5.90;;;3.20;;
49223;SDS011;35050;51.316;5.994;2023-04-15T05:47:56;10.95;;;3.30;;
49223;SDS011;35050;51.316;5.994;2023-04-15T05:50:22;5.00;;;3.90;;
49223;SDS011;35050;51.316;5.994;2023-04-15T05:52:47;4.18;;;3.42;;
49223;SDS011;35050;51.316;5.994;2023-04-15T05:55:13;9.50;;;3.30;;
49223;SDS011;35050;51.316;5.994;2023-04-15T05:57:39;3.95;;;2.70;;
49223;SDS011;35050;51.316;5.994;2023-04-15T06:00:04;3.22;;;2.67;;
49223;SDS011;35050;51.316;5.994;2023-04-15T06:02:31;3.67;;;2.90;;
49223;SDS011;35050;51.316;5.994;2023-04-15T06:04:57;7.00;;;3.20;;
49223;SDS011;35050;51.316;5.994;2023-04-15T06:07:23;4.50;;;2.45;;
49223;SDS011;35050;51.316;5.994;2023-04-15T06:09:48;4.15;;;3.28;;
49223;SDS011;35050;51.316;5.994;2023-04-15T06:12:15;3.42;;;3.03;;
49223;SDS011;35050;51.316;5.994;2023-04-15T06:14:41;10.43;;;3.63;;
49223;SDS011;35050;51.316;5.994;2023-04-15T06:17:07;6.22;;;3.40;;
49223;SDS011;35050;51.316;5.994;2023-04-15T06:19:33;3.40;;;2.78;;
49223;SDS011;35050;51.316;5.994;2023-04-15T06:22:00;4.03;;;2.75;;
49223;SDS011;35050;51.316;5.994;2023-04-15T06:24:26;4.65;;;3.03;;
49223;SDS011;35050;51.316;5.994;2023-04-15T06:26:52;8.20;;;3.15;;
49223;SDS011;35050;51.316;5.994;2023-04-15T06:29:41;5.10;;;3.20;;
49223;SDS011;35050;51.316;5.994;2023-04-15T06:32:07;4.40;;;3.30;;
49223;SDS011;35050;51.316;5.994;2023-04-15T06:34:34;9.10;;;3.20;;
49223;SDS011;35050;51.316;5.994;2023-04-15T06:36:59;5.47;;;3.45;;
49223;SDS011;35050;51.316;5.994;2023-04-15T06:39:25;6.93;;;3.38;;
49223;SDS011;35050;51.316;5.994;2023-04-15T06:41:51;6.57;;;4.00;;
49223;SDS011;35050;51.316;5.994;2023-04-15T06:44:17;6.43;;;3.88;;
49223;SDS011;35050;51.316;5.994;2023-04-15T06:46:43;9.45;;;4.65;;
49223;SDS011;35050;51.316;5.994;2023-04-15T06:49:08;5.10;;;3.88;;
49223;SDS011;35050;51.316;5.994;2023-04-15T06:51:35;10.63;;;3.90;;
49223;SDS011;35050;51.316;5.994;2023-04-15T06:54:01;11.13;;;4.38;;
49223;SDS011;35050;51.316;5.994;2023-04-15T06:56:30;8.10;;;5.03;;
49223;SDS011;35050;51.316;5.994;2023-04-15T06:58:56;8.43;;;4.90;;
49223;SDS011;35050;51.316;5.994;2023-04-15T07:01:21;5.60;;;3.58;;
49223;SDS011;35050;51.316;5.994;2023-04-15T07:03:47;7.65;;;4.20;;
49223;SDS011;35050;51.316;5.994;2023-04-15T07:06:13;4.88;;;3.83;;
49223;SDS011;35050;51.316;5.994;2023-04-15T07:08:39;5.25;;;3.65;;
49223;SDS011;35050;51.316;5.994;2023-04-15T07:11:04;5.53;;;4.05;;
49223;SDS011;35050;51.316;5.994;2023-04-15T07:13:30;5.10;;;4.00;;
49223;SDS011;35050;51.316;5.994;2023-04-15T07:15:56;8.60;;;4.88;;
49223;SDS011;35050;51.316;5.994;2023-04-15T07:18:22;5.88;;;4.43;;
49223;SDS011;35050;51.316;5.994;2023-04-15T07:20:48;5.45;;;4.65;;
49223;SDS011;35050;51.316;5.994;2023-04-15T07:23:14;6.38;;;4.53;;
49223;SDS011;35050;51.316;5.994;2023-04-15T07:25:40;7.30;;;4.95;;
49223;SDS011;35050;51.316;5.994;2023-04-15T07:28:05;4.85;;;4.03;;
49223;SDS011;35050;51.316;5.994;2023-04-15T07:30:31;8.40;;;4.95;;
49223;SDS011;35050;51.316;5.994;2023-04-15T07:32:57;5.13;;;4.30;;
49223;SDS011;35050;51.316;5.994;2023-04-15T07:35:23;4.55;;;3.78;;
49223;SDS011;35050;51.316;5.994;2023-04-15T07:37:50;5.30;;;4.30;;
49223;SDS011;35050;51.316;5.994;2023-04-15T07:40:16;6.43;;;4.40;;
49223;SDS011;35050;51.316;5.994;2023-04-15T07:42:42;5.93;;;4.45;;
49223;SDS011;35050;51.316;5.994;2023-04-15T07:45:08;6.82;;;4.10;;
49223;SDS011;35050;51.316;5.994;2023-04-15T07:47:34;4.15;;;3.75;;
49223;SDS011;35050;51.316;5.994;2023-04-15T07:50:00;5.03;;;3.70;;
49223;SDS011;35050;51.316;5.994;2023-04-15T07:52:26;3.33;;;3.03;;
49223;SDS011;35050;51.316;5.994;2023-04-15T07:54:52;11.00;;;3.63;;
49223;SDS011;35050;51.316;5.994;2023-04-15T07:57:18;8.45;;;3.45;;
49223;SDS011;35050;51.316;5.994;2023-04-15T07:59:43;5.53;;;4.03;;
49223;SDS011;35050;51.316;5.994;2023-04-15T08:02:09;9.38;;;4.30;;
49223;SDS011;35050;51.316;5.994;2023-04-15T08:04:35;7.95;;;3.72;;
49223;SDS011;35050;51.316;5.994;2023-04-15T08:07:01;9.32;;;4.15;;
49223;SDS011;35050;51.316;5.994;2023-04-15T08:09:28;5.25;;;3.47;;
49223;SDS011;35050;51.316;5.994;2023-04-15T08:11:53;6.45;;;4.28;;
49223;SDS011;35050;51.316;5.994;2023-04-15T08:14:21;4.45;;;3.00;;
49223;SDS011;35050;51.316;5.994;2023-04-15T08:16:47;4.80;;;3.63;;
49223;SDS011;35050;51.316;5.994;2023-04-15T08:19:12;8.35;;;3.78;;
49223;SDS011;35050;51.316;5.994;2023-04-15T08:21:38;4.43;;;3.33;;
49223;SDS011;35050;51.316;5.994;2023-04-15T08:24:05;7.38;;;2.95;;
49223;SDS011;35050;51.316;5.994;2023-04-15T08:26:31;5.82;;;3.78;;
49223;SDS011;35050;51.316;5.994;2023-04-15T08:28:57;12.10;;;5.15;;
49223;SDS011;35050;51.316;5.994;2023-04-15T08:31:25;5.00;;;3.67;;
49223;SDS011;35050;51.316;5.994;2023-04-15T08:33:51;9.30;;;3.90;;
49223;SDS011;35050;51.316;5.994;2023-04-15T08:36:19;4.95;;;3.45;;
49223;SDS011;35050;51.316;5.994;2023-04-15T08:38:44;33.15;;;4.13;;
49223;SDS011;35050;51.316;5.994;2023-04-15T08:43:57;4.72;;;3.20;;
49223;SDS011;35050;51.316;5.994;2023-04-15T08:46:26;10.35;;;2.70;;
49223;SDS011;35050;51.316;5.994;2023-04-15T08:48:53;7.00;;;3.33;;
49223;SDS011;35050;51.316;5.994;2023-04-15T08:51:21;3.20;;;2.90;;
49223;SDS011;35050;51.316;5.994;2023-04-15T08:53:47;3.60;;;2.67;;
49223;SDS011;35050;51.316;5.994;2023-04-15T08:56:14;3.60;;;2.78;;
49223;SDS011;35050;51.316;5.994;2023-04-15T08:58:43;3.50;;;3.20;;
49223;SDS011;35050;51.316;5.994;2023-04-15T09:01:10;4.03;;;3.03;;
49223;SDS011;35050;51.316;5.994;2023-04-15T09:03:37;3.00;;;2.70;;
49223;SDS011;35050;51.316;5.994;2023-04-15T09:06:03;6.50;;;2.75;;
49223;SDS011;35050;51.316;5.994;2023-04-15T09:08:30;7.13;;;3.35;;
49223;SDS011;35050;51.316;5.994;2023-04-15T09:10:56;11.82;;;3.42;;
49223;SDS011;35050;51.316;5.994;2023-04-15T09:13:22;3.95;;;2.60;;
49223;SDS011;35050;51.316;5.994;2023-04-15T09:15:47;4.05;;;3.00;;
49223;SDS011;35050;51.316;5.994;2023-04-15T09:18:25;3.78;;;2.92;;
49223;SDS011;35050;51.316;5.994;2023-04-15T09:20:55;6.78;;;3.17;;
49223;SDS011;35050;51.316;5.994;2023-04-15T09:23:29;6.03;;;3.00;;
49223;SDS011;35050;51.316;5.994;2023-04-15T09:25:56;4.25;;;2.75;;
49223;SDS011;35050;51.316;5.994;2023-04-15T09:28:25;3.25;;;2.28;;
49223;SDS011;35050;51.316;5.994;2023-04-15T09:30:51;2.55;;;2.10;;
49223;SDS011;35050;51.316;5.994;2023-04-15T09:33:24;4.10;;;2.10;;
49223;SDS011;35050;51.316;5.994;2023-04-15T09:36:03;1.90;;;1.50;;
49223;SDS011;35050;51.316;5.994;2023-04-15T09:38:30;3.70;;;1.85;;
49223;SDS011;35050;51.316;5.994;2023-04-15T09:40:56;1.75;;;1.38;;
49223;SDS011;35050;51.316;5.994;2023-04-15T09:43:36;1.67;;;1.45;;
49223;SDS011;35050;51.316;5.994;2023-04-15T09:46:03;5.00;;;2.10;;
49223;SDS011;35050;51.316;5.994;2023-04-15T09:48:29;2.65;;;1.80;;
49223;SDS011;35050;51.316;5.994;2023-04-15T09:50:58;4.35;;;1.67;;
49223;SDS011;35050;51.316;5.994;2023-04-15T09:53:25;2.33;;;1.63;;
49223;SDS011;35050;51.316;5.994;2023-04-15T09:55:53;6.68;;;2.65;;
49223;SDS011;35050;51.316;5.994;2023-04-15T10:00:47;3.08;;;2.10;;
49223;SDS011;35050;51.316;5.994;2023-04-15T10:03:24;2.65;;;1.83;;
49223;SDS011;35050;51.316;5.994;2023-04-15T10:05:55;4.25;;;2.08;;
49223;SDS011;35050;51.316;5.994;2023-04-15T10:08:25;3.22;;;1.80;;
49223;SDS011;35050;51.316;5.994;2023-04-15T10:10:52;1.63;;;1.48;;
49223;SDS011;35050;51.316;5.994;2023-04-15T10:13:19;2.88;;;2.20;;
49223;SDS011;35050;51.316;5.994;2023-04-15T10:15:49;8.77;;;2.25;;
49223;SDS011;35050;51.316;5.994;2023-04-15T10:18:19;2.75;;;2.00;;
49223;SDS011;35050;51.316;5.994;2023-04-15T10:20:47;2.92;;;2.17;;
49223;SDS011;35050;51.316;5.994;2023-04-15T10:23:13;2.75;;;2.00;;
49223;SDS011;35050;51.316;5.994;2023-04-15T10:25:39;3.40;;;2.15;;
49223;SDS011;35050;51.316;5.994;2023-04-15T10:28:06;3.08;;;2.42;;
49223;SDS011;35050;51.316;5.994;2023-04-15T10:30:33;3.63;;;2.42;;
49223;SDS011;35050;51.316;5.994;2023-04-15T10:33:00;2.58;;;2.20;;
49223;SDS011;35050;51.316;5.994;2023-04-15T10:35:28;2.28;;;2.05;;
49223;SDS011;35050;51.316;5.994;2023-04-15T10:37:54;3.20;;;1.90;;
49223;SDS011;35050;51.316;5.994;2023-04-15T10:40:24;2.08;;;1.85;;
49223;SDS011;35050;51.316;5.994;2023-04-15T10:42:55;4.25;;;2.10;;
49223;SDS011;35050;51.316;5.994;2023-04-15T10:45:28;2.75;;;2.03;;
49223;SDS011;35050;51.316;5.994;2023-04-15T10:47:58;2.75;;;2.20;;
49223;SDS011;35050;51.316;5.994;2023-04-15T10:50:27;5.72;;;3.10;;
49223;SDS011;35050;51.316;5.994;2023-04-15T10:52:56;5.22;;;2.38;;
49223;SDS011;35050;51.316;5.994;2023-04-15T10:55:23;4.18;;;2.20;;
49223;SDS011;35050;51.316;5.994;2023-04-15T10:57:51;2.40;;;1.65;;
49223;SDS011;35050;51.316;5.994;2023-04-15T11:00:19;2.15;;;1.90;;
49223;SDS011;35050;51.316;5.994;2023-04-15T11:02:52;1.65;;;1.55;;
49223;SDS011;35050;51.316;5.994;2023-04-15T11:05:18;5.25;;;1.85;;
49223;SDS011;35050;51.316;5.994;2023-04-15T11:07:49;11.00;;;1.90;;
49223;SDS011;35050;51.316;5.994;2023-04-15T11:12:51;2.85;;;2.20;;
49223;SDS011;35050;51.316;5.994;2023-04-15T11:20:49;3.20;;;1.60;;
49223;SDS011;35050;51.316;5.994;2023-04-15T11:23:17;1.80;;;1.40;;
49223;SDS011;35050;51.316;5.994;2023-04-15T11:25:44;3.42;;;1.90;;
49223;SDS011;35050;51.316;5.994;2023-04-15T11:28:10;3.67;;;1.90;;
49223;SDS011;35050;51.316;5.994;2023-04-15T11:30:37;3.05;;;1.80;;
49223;SDS011;35050;51.316;5.994;2023-04-15T11:33:04;1.73;;;1.63;;
49223;SDS011;35050;51.316;5.994;2023-04-15T11:35:31;3.38;;;1.98;;
49223;SDS011;35050;51.316;5.994;2023-04-15T11:37:57;2.13;;;1.92;;
49223;SDS011;35050;51.316;5.994;2023-04-15T11:40:23;2.85;;;2.10;;
49223;SDS011;35050;51.316;5.994;2023-04-15T11:43:07;2.80;;;2.28;;
49223;SDS011;35050;51.316;5.994;2023-04-15T11:46:13;1.88;;;1.67;;
49223;SDS011;35050;51.316;5.994;2023-04-15T11:48:33;2.78;;;2.00;;
49223;SDS011;35050;51.316;5.994;2023-04-15T11:51:01;2.35;;;2.15;;
49223;SDS011;35050;51.316;5.994;2023-04-15T11:53:38;2.45;;;2.00;;
49223;SDS011;35050;51.316;5.994;2023-04-15T11:56:05;9.88;;;2.40;;
49223;SDS011;35050;51.316;5.994;2023-04-15T11:58:33;3.90;;;1.50;;
49223;SDS011;35050;51.316;5.994;2023-04-15T12:01:01;1.75;;;1.60;;
49223;SDS011;35050;51.316;5.994;2023-04-15T12:03:28;2.03;;;1.77;;
49223;SDS011;35050;51.316;5.994;2023-04-15T12:06:07;2.10;;;1.90;;
49223;SDS011;35050;51.316;5.994;2023-04-15T12:13:46;1.98;;;1.60;;
49223;SDS011;35050;51.316;5.994;2023-04-15T12:16:19;11.18;;;2.50;;
49223;SDS011;35050;51.316;5.994;2023-04-15T12:18:45;2.80;;;1.77;;
49223;SDS011;35050;51.316;5.994;2023-04-15T12:21:20;3.33;;;1.63;;
49223;SDS011;35050;51.316;5.994;2023-04-15T12:23:51;2.45;;;1.30;;
49223;SDS011;35050;51.316;5.994;2023-04-15T12:26:25;1.40;;;1.30;;
49223;SDS011;35050;51.316;5.994;2023-04-15T12:28:55;2.45;;;1.60;;
49223;SDS011;35050;51.316;5.994;2023-04-15T12:31:25;3.40;;;1.58;;
49223;SDS011;35050;51.316;5.994;2023-04-15T12:33:53;11.70;;;2.38;;
49223;SDS011;35050;51.316;5.994;2023-04-15T12:36:20;4.75;;;1.35;;
49223;SDS011;35050;51.316;5.994;2023-04-15T12:38:45;6.13;;;1.73;;
49223;SDS011;35050;51.316;5.994;2023-04-15T12:41:11;1.63;;;1.52;;
49223;SDS011;35050;51.316;5.994;2023-04-15T12:43:37;8.48;;;1.77;;
49223;SDS011;35050;51.316;5.994;2023-04-15T12:46:02;1.80;;;1.35;;
49223;SDS011;35050;51.316;5.994;2023-04-15T12:48:28;2.67;;;1.50;;
49223;SDS011;35050;51.316;5.994;2023-04-15T12:50:54;2.03;;;1.50;;
49223;SDS011;35050;51.316;5.994;2023-04-15T12:53:20;4.63;;;1.63;;
49223;SDS011;35050;51.316;5.994;2023-04-15T12:55:46;7.45;;;1.55;;
49223;SDS011;35050;51.316;5.994;2023-04-15T12:58:12;2.10;;;1.50;;
49223;SDS011;35050;51.316;5.994;2023-04-15T13:00:38;9.50;;;1.77;;
49223;SDS011;35050;51.316;5.994;2023-04-15T13:03:03;3.85;;;1.60;;
49223;SDS011;35050;51.316;5.994;2023-04-15T13:05:29;11.77;;;2.03;;
49223;SDS011;35050;51.316;5.994;2023-04-15T13:07:55;6.05;;;1.60;;
49223;SDS011;35050;51.316;5.994;2023-04-15T13:10:21;26.42;;;2.40;;
49223;SDS011;35050;51.316;5.994;2023-04-15T13:12:50;7.85;;;1.63;;
49223;SDS011;35050;51.316;5.994;2023-04-15T13:15:18;4.60;;;1.60;;
49223;SDS011;35050;51.316;5.994;2023-04-15T13:17:46;33.28;;;4.22;;
49223;SDS011;35050;51.316;5.994;2023-04-15T13:20:12;10.23;;;2.20;;
49223;SDS011;35050;51.316;5.994;2023-04-15T13:22:38;6.82;;;1.60;;
49223;SDS011;35050;51.316;5.994;2023-04-15T13:25:04;2.72;;;1.55;;
49223;SDS011;35050;51.316;5.994;2023-04-15T13:27:31;1.15;;;0.85;;
49223;SDS011;35050;51.316;5.994;2023-04-15T13:29:57;1.98;;;1.10;;
49223;SDS011;35050;51.316;5.994;2023-04-15T13:32:23;1.95;;;0.90;;
49223;SDS011;35050;51.316;5.994;2023-04-15T13:34:50;1.60;;;0.82;;
49223;SDS011;35050;51.316;5.994;2023-04-15T13:37:15;2.95;;;0.98;;
49223;SDS011;35050;51.316;5.994;2023-04-15T13:39:41;4.07;;;1.20;;
49223;SDS011;35050;51.316;5.994;2023-04-15T13:42:07;3.70;;;1.60;;
49223;SDS011;35050;51.316;5.994;2023-04-15T13:44:33;7.40;;;1.77;;
49223;SDS011;35050;51.316;5.994;2023-04-15T13:47:00;18.35;;;2.20;;
49223;SDS011;35050;51.316;5.994;2023-04-15T13:49:26;6.63;;;1.50;;
49223;SDS011;35050;51.316;5.994;2023-04-15T13:51:51;7.65;;;1.75;;
49223;SDS011;35050;51.316;5.994;2023-04-15T13:54:17;3.85;;;1.30;;
49223;SDS011;35050;51.316;5.994;2023-04-15T13:56:43;1.17;;;0.90;;
49223;SDS011;35050;51.316;5.994;2023-04-15T13:59:08;1.17;;;0.95;;
49223;SDS011;35050;51.316;5.994;2023-04-15T14:01:34;1.67;;;1.02;;
49223;SDS011;35050;51.316;5.994;2023-04-15T14:04:00;1.75;;;0.93;;
49223;SDS011;35050;51.316;5.994;2023-04-15T14:06:26;2.58;;;0.90;;
49223;SDS011;35050;51.316;5.994;2023-04-15T14:08:52;13.55;;;1.60;;
49223;SDS011;35050;51.316;5.994;2023-04-15T14:11:19;5.57;;;1.23;;
49223;SDS011;35050;51.316;5.994;2023-04-15T14:13:45;3.67;;;1.50;;
49223;SDS011;35050;51.316;5.994;2023-04-15T14:16:10;12.80;;;1.33;;
49223;SDS011;35050;51.316;5.994;2023-04-15T14:18:36;3.05;;;1.10;;
49223;SDS011;35050;51.316;5.994;2023-04-15T14:21:01;1.25;;;0.73;;
49223;SDS011;35050;51.316;5.994;2023-04-15T14:23:27;3.65;;;1.10;;
49223;SDS011;35050;51.316;5.994;2023-04-15T14:25:53;7.07;;;1.73;;
49223;SDS011;35050;51.316;5.994;2023-04-15T14:28:19;14.75;;;2.05;;
49223;SDS011;35050;51.316;5.994;2023-04-15T14:30:45;7.68;;;1.67;;
49223;SDS011;35050;51.316;5.994;2023-04-15T14:33:10;11.65;;;1.55;;
49223;SDS011;35050;51.316;5.994;2023-04-15T14:35:37;6.28;;;1.98;;
49223;SDS011;35050;51.316;5.994;2023-04-15T14:38:03;8.80;;;1.42;;
49223;SDS011;35050;51.316;5.994;2023-04-15T14:40:30;3.10;;;1.67;;
49223;SDS011;35050;51.316;5.994;2023-04-15T14:42:57;2.55;;;0.98;;
49223;SDS011;35050;51.316;5.994;2023-04-15T14:45:22;13.02;;;2.05;;
49223;SDS011;35050;51.316;5.994;2023-04-15T14:47:48;5.72;;;1.48;;
49223;SDS011;35050;51.316;5.994;2023-04-15T14:50:14;2.08;;;1.00;;
49223;SDS011;35050;51.316;5.994;2023-04-15T14:52:41;3.03;;;0.80;;
49223;SDS011;35050;51.316;5.994;2023-04-15T14:55:07;1.80;;;0.90;;
49223;SDS011;35050;51.316;5.994;2023-04-15T14:57:37;13.48;;;1.73;;
49223;SDS011;35050;51.316;5.994;2023-04-15T15:00:04;4.47;;;1.10;;
49223;SDS011;35050;51.316;5.994;2023-04-15T15:02:31;1.65;;;1.05;;
49223;SDS011;35050;51.316;5.994;2023-04-15T15:04:59;1.92;;;1.10;;
49223;SDS011;35050;51.316;5.994;2023-04-15T15:07:25;1.23;;;1.10;;